Kenwood, California
Current Conditions -  °F | °C
As of 3:53 AM on Friday 19 Dec 2014 (Local Time) from KSTS Reporting Station
Light Rain Light Rain  
Wind Chill: 53°   Ceiling: 400
Heat Index: 53°   Visibility: 4mi
Dew Point: 53°   Wind: 10mph
Humidity: 100%   Direction: 140°SE
Pressure: 30.08"   Gusts: NA
Location:  38.41°N, 122.55°W
Report Text: KSTS 191153Z AUTO 14009KT 4SM -RA BR BKN004 BKN008 OVC013 12/12 A3008 RMK AO2 SLP179 P0004 60021 70023 T01170117 10117 20111 56010
Loading
Personal Weather Stations






























Interactive Weather Map New forecast layout! Learn more

10-Day Weather Forecast

Advertisements
Track Severe Weather on mobile